Time;durP1;ratioP1;P1;durP2;ratioP2;P2;SDS_P1;SDS_P2;PMS_P1;PMS_P2;Temp;Humidity;BMP_temperature;BMP_pressure;BME280_temperature;BME280_humidity;BME280_pressure;Samples;Min_cycle;Max_cycle;Signal;HPM_P1;HPM_P2
2022/08/13 00:00:22;;;;;;;5.28;1.88;;;21.20;75.00;;;;;;4248784;27;20384;-83
2022/08/13 00:02:22;;;;;;;3.88;2.20;;;21.20;75.50;;;;;;4249109;27;20054;-83
2022/08/13 00:04:26;;;;;;;4.45;2.08;;;21.20;75.70;;;;;;4244524;27;20396;-83
2022/08/13 00:07:02;;;;;;;18.48;3.50;;;21.10;76.00;;;;;;4232225;28;20352;-83
2022/08/13 00:08:51;;;;;;;5.88;2.05;;;21.10;76.30;;;;;;4232360;28;20143;-83
2022/08/13 00:10:52;;;;;;;2.92;1.90;;;21.10;76.50;;;;;;4231259;28;20487;-83
2022/08/13 00:13:03;;;;;;;5.38;2.17;;;21.10;76.80;;;;;;4231671;28;20039;-83
2022/08/13 00:15:28;;;;;;;3.67;1.88;;;21.10;77.10;;;;;;4230718;28;20066;-83
2022/08/13 00:17:33;;;;;;;5.38;2.30;;;21.10;78.50;;;;;;4231976;28;20058;-83
2022/08/13 00:19:33;;;;;;;6.13;2.08;;;21.00;77.70;;;;;;4231186;28;20044;-83
2022/08/13 00:21:34;;;;;;;2.25;1.83;;;21.00;78.00;;;;;;4232513;28;20088;-83
2022/08/13 00:23:35;;;;;;;3.13;1.92;;;20.90;78.20;;;;;;4232188;28;20476;-83
2022/08/13 00:25:36;;;;;;;3.80;2.08;;;20.90;78.60;;;;;;4231720;27;20075;-83
2022/08/13 00:27:37;;;;;;;8.48;2.17;;;20.90;79.00;;;;;;4231325;28;20051;-83
2022/08/13 00:29:38;;;;;;;5.82;1.75;;;20.80;79.30;;;;;;4230469;28;20125;-83
2022/08/13 00:31:39;;;;;;;3.78;1.98;;;20.80;79.70;;;;;;4241115;27;20047;-82
2022/08/13 00:33:40;;;;;;;4.47;2.17;;;20.80;80.00;;;;;;4230501;28;20127;-83
2022/08/13 00:35:42;;;;;;;4.65;2.17;;;20.70;80.30;;;;;;4247324;27;20043;-83
2022/08/13 00:37:43;;;;;;;3.38;2.00;;;20.70;80.70;;;;;;4249115;27;20767;-83
2022/08/13 00:39:43;;;;;;;3.05;1.80;;;20.60;81.00;;;;;;4230404;28;20051;-83
2022/08/13 00:41:46;;;;;;;4.75;2.15;;;20.60;81.30;;;;;;4246854;27;20047;-83
2022/08/13 00:43:47;;;;;;;4.03;2.00;;;20.60;81.60;;;;;;4248701;27;20495;-83
2022/08/13 00:45:48;;;;;;;5.05;2.40;;;20.50;81.80;;;;;;4246272;27;20092;-83
2022/08/13 00:50:08;;;;;;;3.65;1.98;;;20.40;82.40;;;;;;4230371;28;20052;-83
2022/08/13 00:52:10;;;;;;;6.60;2.58;;;20.40;82.70;;;;;;4230932;28;20043;-82
2022/08/13 00:54:14;;;;;;;5.85;2.35;;;20.40;83.10;;;;;;4231541;28;20515;-83
2022/08/13 00:56:16;;;;;;;3.33;2.08;;;20.30;83.30;;;;;;4230116;28;20516;-83
2022/08/13 00:58:19;;;;;;;3.40;2.00;;;20.30;83.50;;;;;;4230209;28;20126;-82
2022/08/13 01:00:23;;;;;;;3.17;2.10;;;20.20;83.70;;;;;;4230318;28;20051;-83
2022/08/13 01:02:25;;;;;;;6.60;2.42;;;20.20;84.00;;;;;;4230909;28;20079;-83
2022/08/13 01:04:26;;;;;;;5.57;2.10;;;20.20;84.20;;;;;;4231284;28;20039;-83
2022/08/13 01:06:28;;;;;;;5.78;2.00;;;20.20;84.50;;;;;;4235368;27;20126;-83
2022/08/13 01:08:32;;;;;;;5.10;2.53;;;20.20;84.70;;;;;;4247053;27;20039;-83
2022/08/13 01:10:34;;;;;;;4.90;2.58;;;20.20;85.10;;;;;;4230355;28;20063;-82
2022/08/13 01:12:37;;;;;;;4.75;2.03;;;20.10;85.20;;;;;;4248308;27;20049;-82
2022/08/13 01:14:39;;;;;;;5.18;2.30;;;20.10;85.50;;;;;;4229336;28;20458;-82
2022/08/13 01:16:41;;;;;;;4.90;2.42;;;20.10;85.70;;;;;;4246745;27;20105;-83
2022/08/13 01:18:47;;;;;;;6.60;2.60;;;20.00;85.90;;;;;;4246877;27;20050;-82
2022/08/13 01:20:58;;;;;;;7.93;3.03;;;20.00;86.40;;;;;;4229385;28;20440;-82
2022/08/13 01:23:00;;;;;;;4.60;2.00;;;20.00;86.50;;;;;;4247722;27;20476;-82
2022/08/13 01:25:02;;;;;;;8.75;2.63;;;20.00;86.70;;;;;;4246504;27;20066;-83
2022/08/13 01:27:04;;;;;;;4.82;2.30;;;20.00;87.00;;;;;;4247247;27;20053;-83
2022/08/13 01:29:07;;;;;;;5.05;2.30;;;19.90;87.00;;;;;;4247671;27;20047;-83
2022/08/13 01:31:08;;;;;;;3.00;2.00;;;19.90;87.10;;;;;;4237350;27;20048;-83
2022/08/13 01:33:11;;;;;;;3.40;2.50;;;19.90;87.30;;;;;;4229114;28;20063;-83
2022/08/13 01:35:12;;;;;;;4.00;2.40;;;19.80;87.50;;;;;;4230442;28;20088;-83
2022/08/13 01:37:14;;;;;;;4.90;3.15;;;19.80;87.90;;;;;;4230308;28;20051;-83
2022/08/13 01:39:15;;;;;;;5.15;2.22;;;19.70;88.20;;;;;;4228440;28;20091;-83
2022/08/13 01:41:16;;;;;;;5.85;2.40;;;19.70;88.40;;;;;;4230553;28;20519;-83
2022/08/13 01:43:17;;;;;;;5.60;2.63;;;19.60;88.50;;;;;;4230413;28;20048;-83
2022/08/13 01:45:18;;;;;;;7.30;2.40;;;19.60;88.80;;;;;;4229006;28;20051;-83
2022/08/13 01:52:09;;;;;;;4.60;2.50;;;19.50;90.00;;;;;;4228639;28;20059;-83
2022/08/13 01:54:12;;;;;;;4.78;2.40;;;19.50;89.60;;;;;;4245991;27;20051;-83
2022/08/13 01:56:21;;;;;;;3.85;2.38;;;19.40;90.00;;;;;;4246708;27;20123;-83
2022/08/13 01:58:25;;;;;;;3.70;2.40;;;19.40;90.10;;;;;;4246909;27;20069;-83
2022/08/13 02:00:26;;;;;;;4.80;2.30;;;19.40;90.20;;;;;;4245812;27;20084;-83
2022/08/13 02:02:30;;;;;;;7.60;2.95;;;19.40;90.30;;;;;;4245730;27;20403;-83
2022/08/13 02:04:32;;;;;;;6.20;2.70;;;19.40;90.30;;;;;;4245326;28;20043;-83
2022/08/13 02:06:34;;;;;;;3.67;2.60;;;19.40;90.40;;;;;;4247046;27;20047;-83
2022/08/13 02:08:40;;;;;;;5.72;2.70;;;19.40;90.40;;;;;;4247173;27;20043;-83
2022/08/13 02:10:44;;;;;;;6.45;3.22;;;19.30;90.30;;;;;;4245545;28;20062;-83
2022/08/13 02:12:46;;;;;;;4.30;2.50;;;19.30;90.30;;;;;;4245831;28;20047;-83
2022/08/13 02:14:47;;;;;;;5.53;2.58;;;19.40;90.40;;;;;;4245247;28;20130;-82
2022/08/13 02:16:48;;;;;;;4.38;2.58;;;19.30;90.50;;;;;;4236290;28;20035;-83
2022/08/13 02:18:52;;;;;;;4.78;2.60;;;19.30;90.40;;;;;;4229872;28;20396;-82
2022/08/13 02:20:58;;;;;;;5.18;2.63;;;19.30;90.50;;;;;;4230021;28;20036;-82
2022/08/13 02:22:58;;;;;;;5.05;2.40;;;19.30;90.60;;;;;;4228924;28;20059;-83
2022/08/13 02:25:01;;;;;;;4.80;2.70;;;19.30;90.60;;;;;;4228615;28;20056;-83
2022/08/13 02:27:02;;;;;;;4.28;2.45;;;19.20;90.60;;;;;;4228204;28;20046;-83
2022/08/13 02:29:04;;;;;;;3.97;2.50;;;19.20;90.70;;;;;;4229983;28;20047;-83
2022/08/13 02:31:07;;;;;;;6.80;2.60;;;19.20;90.70;;;;;;4228744;28;20060;-83
2022/08/13 02:33:09;;;;;;;4.65;2.30;;;19.20;90.80;;;;;;4228707;28;20058;-83
2022/08/13 02:35:10;;;;;;;3.70;2.75;;;19.20;90.70;;;;;;4228719;28;20066;-83
2022/08/13 02:37:15;;;;;;;7.80;3.45;;;19.20;90.70;;;;;;4228387;28;20047;-83
2022/08/13 02:39:16;;;;;;;6.78;2.78;;;19.20;90.80;;;;;;4211551;28;20395;-82
2022/08/13 02:43:36;;;;;;;6.93;2.75;;;19.10;90.80;;;;;;4229519;28;20043;-83
2022/08/13 02:45:38;;;;;;;4.70;3.08;;;19.20;90.70;;;;;;4244273;28;20364;-83
2022/08/13 02:47:39;;;;;;;4.22;2.70;;;19.10;90.80;;;;;;4229211;28;20551;-82
2022/08/13 02:49:41;;;;;;;5.72;2.72;;;19.20;90.90;;;;;;4247553;28;20049;-83
2022/08/13 02:51:46;;;;;;;8.50;3.30;;;19.10;90.90;;;;;;4229028;28;20485;-82
2022/08/13 02:53:47;;;;;;;5.18;2.55;;;19.10;90.90;;;;;;4247072;28;20075;-82
2022/08/13 02:55:48;;;;;;;8.65;2.83;;;18.80;90.90;;;;;;4246905;28;20385;-82
2022/08/13 02:57:52;;;;;;;4.97;2.63;;;19.00;91.00;;;;;;4247362;28;20513;-82
2022/08/13 02:59:53;;;;;;;4.90;2.70;;;19.00;91.10;;;;;;4247512;28;20119;-82
2022/08/13 03:01:55;;;;;;;5.65;3.20;;;19.00;91.10;;;;;;4255860;27;20051;-82
2022/08/13 03:03:56;;;;;;;5.00;2.67;;;19.00;91.10;;;;;;4267623;27;20050;-82
2022/08/13 03:05:58;;;;;;;7.90;2.53;;;18.90;91.10;;;;;;4231418;28;20043;-83
2022/08/13 03:07:59;;;;;;;5.97;3.00;;;18.90;91.20;;;;;;4249357;27;20051;-82
2022/08/13 03:10:04;;;;;;;4.75;2.10;;;18.90;91.30;;;;;;4266990;27;20054;-83
2022/08/13 03:12:06;;;;;;;4.70;2.60;;;18.90;91.40;;;;;;4267293;27;20064;-83
2022/08/13 03:14:09;;;;;;;3.97;2.72;;;18.80;91.40;;;;;;4248738;27;20078;-83
2022/08/13 03:16:14;;;;;;;12.35;3.00;;;18.80;91.50;;;;;;4248946;27;20047;-83
2022/08/13 03:18:15;;;;;;;5.28;2.85;;;18.80;91.50;;;;;;4267023;27;20050;-83
2022/08/13 03:20:16;;;;;;;8.88;2.90;;;18.80;91.50;;;;;;4248795;27;20542;-83
2022/08/13 03:22:17;;;;;;;7.18;3.20;;;18.70;91.40;;;;;;4267018;27;20141;-82
2022/08/13 03:24:19;;;;;;;3.33;2.42;;;18.70;91.50;;;;;;4248709;27;20051;-82
2022/08/13 03:26:22;;;;;;;5.15;2.80;;;18.70;91.60;;;;;;4252684;27;20092;-83
2022/08/13 03:28:23;;;;;;;7.72;2.50;;;18.70;91.60;;;;;;4249558;27;20050;-83
2022/08/13 03:30:26;;;;;;;7.68;2.83;;;18.70;91.60;;;;;;4231550;28;20130;-83
2022/08/13 03:32:27;;;;;;;5.13;3.35;;;18.70;91.70;;;;;;4249739;27;20135;-83
2022/08/13 03:34:28;;;;;;;4.00;2.88;;;18.60;91.70;;;;;;4231740;28;20052;-83
2022/08/13 03:36:30;;;;;;;4.80;2.72;;;18.60;91.70;;;;;;4249872;27;20039;-82
2022/08/13 03:38:31;;;;;;;3.83;2.42;;;18.60;91.70;;;;;;4214556;28;20051;-82
2022/08/13 03:42:52;;;;;;;3.42;2.45;;;18.60;91.80;;;;;;4249428;27;20047;-83
2022/08/13 03:44:54;;;;;;;8.95;2.60;;;18.50;91.90;;;;;;4249189;27;20055;-82
2022/08/13 03:46:55;;;;;;;3.17;2.28;;;18.50;91.90;;;;;;4249374;27;20039;-82
2022/08/13 03:48:55;;;;;;;6.25;2.97;;;18.40;92.00;;;;;;4253280;27;20391;-83
2022/08/13 03:51:00;;;;;;;3.90;2.50;;;18.40;92.00;;;;;;4266814;27;20460;-83
2022/08/13 03:53:04;;;;;;;3.97;2.60;;;18.40;92.20;;;;;;4248175;27;20426;-83
2022/08/13 03:55:09;;;;;;;4.32;2.78;;;18.30;92.20;;;;;;4247559;27;20085;-83
2022/08/13 03:57:12;;;;;;;7.18;2.83;;;18.30;92.20;;;;;;4266595;27;20518;-83
2022/08/13 03:59:13;;;;;;;7.18;2.72;;;18.20;92.20;;;;;;4266694;27;20035;-83
2022/08/13 04:01:15;;;;;;;4.07;2.80;;;18.20;92.20;;;;;;4247612;27;20148;-83
2022/08/13 04:03:36;;;;;;;4.90;3.10;;;18.20;92.30;;;;;;4266637;27;20039;-82
2022/08/13 04:05:37;;;;;;;7.57;2.72;;;18.20;92.40;;;;;;4247608;27;20044;-83
2022/08/13 04:07:39;;;;;;;5.80;2.50;;;18.10;92.40;;;;;;4266222;27;20038;-82
2022/08/13 04:09:40;;;;;;;4.75;2.78;;;18.10;92.40;;;;;;4266351;27;20042;-82
2022/08/13 04:11:41;;;;;;;4.05;2.45;;;18.10;92.50;;;;;;4266159;27;20054;-83
2022/08/13 04:13:42;;;;;;;4.95;2.83;;;18.10;92.50;;;;;;4233491;27;20078;-81
2022/08/13 04:15:46;;;;;;;5.50;2.70;;;18.10;92.50;;;;;;4249101;27;20074;-83
2022/08/13 04:17:46;;;;;;;4.95;2.92;;;18.00;92.60;;;;;;4231123;28;20036;-82
2022/08/13 04:19:47;;;;;;;5.72;2.83;;;18.00;92.60;;;;;;4249129;27;20042;-82
2022/08/13 04:21:48;;;;;;;4.25;2.65;;;18.00;92.60;;;;;;4230651;28;20047;-82
2022/08/13 04:23:51;;;;;;;5.43;2.60;;;17.90;92.60;;;;;;4249053;27;20189;-82
2022/08/13 04:25:52;;;;;;;4.70;2.63;;;17.90;92.70;;;;;;4230874;28;20636;-82
2022/08/13 04:27:54;;;;;;;8.00;2.97;;;18.00;92.70;;;;;;4248543;27;20398;-82
2022/08/13 04:29:56;;;;;;;5.22;2.50;;;17.90;92.80;;;;;;4213721;28;20040;-82
2022/08/13 04:31:59;;;;;;;7.00;2.45;;;17.90;92.80;;;;;;4230494;28;20051;-82
2022/08/13 04:34:00;;;;;;;6.00;2.70;;;18.00;92.90;;;;;;4213581;28;20040;-82
2022/08/13 04:36:01;;;;;;;7.60;2.95;;;17.90;92.80;;;;;;4230073;28;20043;-82
2022/08/13 04:38:06;;;;;;;4.82;2.90;;;17.90;92.90;;;;;;4248838;27;20035;-83
2022/08/13 04:40:07;;;;;;;8.68;2.95;;;17.90;92.90;;;;;;4230698;28;20051;-82
2022/08/13 04:42:07;;;;;;;4.40;2.65;;;17.90;93.00;;;;;;4248761;27;20041;-82
2022/08/13 04:44:08;;;;;;;3.90;2.83;;;17.90;93.00;;;;;;4230292;28;20492;-82
2022/08/13 04:46:10;;;;;;;4.72;2.78;;;17.90;92.90;;;;;;4248729;27;20509;-83
2022/08/13 04:48:13;;;;;;;4.60;3.55;;;17.90;92.90;;;;;;4248645;27;20047;-83
2022/08/13 04:50:14;;;;;;;8.45;2.78;;;17.90;92.90;;;;;;4248705;27;20368;-82
2022/08/13 04:52:15;;;;;;;5.03;3.63;;;17.90;92.80;;;;;;4248203;27;20566;-82
2022/08/13 04:54:17;;;;;;;8.63;3.22;;;17.90;92.80;;;;;;4248614;27;20096;-82
2022/08/13 04:56:18;;;;;;;9.88;3.38;;;18.00;92.80;;;;;;4246040;27;20050;-83
2022/08/13 04:58:19;;;;;;;4.82;3.35;;;18.00;92.70;;;;;;4247300;27;20491;-82
2022/08/13 05:00:20;;;;;;;8.68;3.75;;;18.00;92.70;;;;;;4248389;27;20141;-82
2022/08/13 05:02:21;;;;;;;5.30;2.83;;;18.00;92.70;;;;;;4213561;28;20048;-82
2022/08/13 05:04:22;;;;;;;4.85;2.83;;;18.00;92.60;;;;;;4248426;27;20055;-82
2022/08/13 05:06:23;;;;;;;6.28;2.97;;;18.00;92.60;;;;;;4230810;27;20535;-82
2022/08/13 05:08:24;;;;;;;10.88;3.22;;;18.00;92.60;;;;;;4265447;27;20050;-82
2022/08/13 05:10:25;;;;;;;9.65;3.10;;;18.00;92.60;;;;;;4265250;27;20052;-82
2022/08/13 05:12:27;;;;;;;5.95;3.60;;;18.00;92.60;;;;;;4265657;27;20035;-83
2022/08/13 05:14:28;;;;;;;5.50;3.72;;;18.00;92.60;;;;;;4246443;27;20085;-82
2022/08/13 05:16:28;;;;;;;9.68;3.40;;;18.00;92.60;;;;;;4230085;27;20039;-82
2022/08/13 05:18:31;;;;;;;9.82;3.35;;;18.10;92.70;;;;;;4248215;27;20043;-82
2022/08/13 05:20:32;;;;;;;4.93;3.22;;;18.10;92.70;;;;;;4248177;27;20047;-82
2022/08/13 05:22:34;;;;;;;5.72;3.40;;;18.10;92.80;;;;;;4247949;27;20085;-82
2022/08/13 05:24:37;;;;;;;6.97;2.80;;;18.20;92.80;;;;;;4262953;27;20050;-82
2022/08/13 05:26:37;;;;;;;4.78;3.05;;;18.20;92.80;;;;;;4264088;27;20099;-82
2022/08/13 05:28:38;;;;;;;7.88;3.33;;;18.30;92.90;;;;;;4246148;27;20118;-83
2022/08/13 05:30:39;;;;;;;8.00;3.72;;;18.30;92.80;;;;;;4265177;27;20051;-82
2022/08/13 05:32:40;;;;;;;8.63;3.17;;;18.30;92.80;;;;;;4246858;27;20126;-82
2022/08/13 05:34:41;;;;;;;4.95;3.13;;;18.40;92.70;;;;;;4264917;27;20081;-83
2022/08/13 05:36:45;;;;;;;4.82;3.28;;;18.40;92.50;;;;;;4246371;27;20086;-82
2022/08/13 05:38:48;;;;;;;5.60;3.17;;;18.50;92.50;;;;;;4246550;27;20085;-82
2022/08/13 05:40:58;;;;;;;5.35;3.35;;;18.50;92.50;;;;;;4246665;27;20047;-81
2022/08/13 05:42:59;;;;;;;8.15;3.53;;;18.50;92.40;;;;;;4264298;27;20125;-83
2022/08/13 05:45:01;;;;;;;7.20;3.03;;;18.70;92.10;;;;;;4225394;28;20557;-82
2022/08/13 05:47:02;;;;;;;9.48;4.10;;;18.70;91.90;;;;;;4247423;27;20038;-83
2022/08/13 05:49:02;;;;;;;9.90;4.88;;;18.80;91.70;;;;;;4247707;27;20429;-82
2022/08/13 05:51:07;;;;;;;6.47;3.40;;;18.90;91.50;;;;;;4229590;28;20075;-82
2022/08/13 05:53:10;;;;;;;7.47;3.35;;;19.00;91.30;;;;;;4247282;27;20042;-83
2022/08/13 05:55:13;;;;;;;6.38;3.63;;;19.10;91.00;;;;;;4247605;27;20047;-82
2022/08/13 05:57:14;;;;;;;5.00;3.55;;;19.20;90.80;;;;;;4229092;28;20178;-83
2022/08/13 06:03:54;;;;;;;6.05;3.08;;;19.40;90.50;;;;;;4256108;27;20502;-81
2022/08/13 06:06:06;;;;;;;6.35;3.35;;;19.50;90.50;;;;;;4264544;27;20035;-83
2022/08/13 06:08:07;;;;;;;7.13;3.60;;;19.50;90.30;;;;;;4246326;28;20523;-83
2022/08/13 06:10:08;;;;;;;4.80;3.75;;;19.60;90.10;;;;;;4264980;27;20046;-82
2022/08/13 06:12:09;;;;;;;7.50;3.15;;;19.70;90.00;;;;;;4246725;28;20051;-82
2022/08/13 06:14:20;;;;;;;6.93;3.30;;;19.80;89.70;;;;;;4264694;27;20546;-82
2022/08/13 06:16:28;;;;;;;5.88;3.80;;;19.90;89.40;;;;;;4250118;27;20517;-82
2022/08/13 06:18:31;;;;;;;3.70;2.85;;;20.00;89.30;;;;;;4247282;28;20533;-82
2022/08/13 06:20:32;;;;;;;10.38;3.47;;;20.10;89.30;;;;;;4229307;28;20590;-83
2022/08/13 06:22:34;;;;;;;6.80;3.47;;;20.20;88.90;;;;;;4247233;28;20442;-82
2022/08/13 06:24:37;;;;;;;8.38;3.20;;;20.30;89.10;;;;;;4247259;27;20081;-82
2022/08/13 06:26:38;;;;;;;8.18;3.20;;;20.40;88.50;;;;;;4247233;28;20495;-83
2022/08/13 06:28:40;;;;;;;5.70;3.30;;;20.50;88.50;;;;;;4211637;28;20131;-82
2022/08/13 06:30:43;;;;;;;8.23;3.95;;;20.50;87.80;;;;;;4247236;28;20511;-82
2022/08/13 06:32:44;;;;;;;5.22;3.67;;;20.60;87.50;;;;;;4247227;28;20043;-82
2022/08/13 06:34:45;;;;;;;4.65;2.97;;;20.70;87.30;;;;;;4247249;28;20040;-82
2022/08/13 06:36:47;;;;;;;4.70;3.03;;;20.70;87.30;;;;;;4212543;28;20128;-82
2022/08/13 06:38:50;;;;;;;6.57;3.22;;;20.90;87.30;;;;;;4250603;27;20071;-82
2022/08/13 06:40:53;;;;;;;6.45;3.25;;;20.90;86.90;;;;;;4231836;28;20496;-83
2022/08/13 06:42:55;;;;;;;8.45;3.15;;;21.00;86.40;;;;;;4263189;27;20078;-82
2022/08/13 06:44:58;;;;;;;4.75;3.10;;;21.00;86.00;;;;;;4267426;27;20046;-83
2022/08/13 06:47:03;;;;;;;8.77;3.80;;;21.10;86.30;;;;;;4267688;27;20046;-82
2022/08/13 06:49:04;;;;;;;4.47;3.15;;;21.10;86.20;;;;;;4267705;27;20063;-82
2022/08/13 06:51:07;;;;;;;7.93;2.95;;;21.20;86.10;;;;;;4267741;27;20034;-84
2022/08/13 06:53:09;;;;;;;10.20;3.20;;;21.30;86.00;;;;;;4267947;27;20042;-83
2022/08/13 06:55:10;;;;;;;4.82;2.63;;;21.40;85.60;;;;;;4248801;27;20053;-83
2022/08/13 06:57:11;;;;;;;8.45;2.67;;;21.40;85.20;;;;;;4267357;27;20047;-83
2022/08/13 06:59:13;;;;;;;3.20;2.78;;;21.50;84.90;;;;;;4267393;27;20112;-82
2022/08/13 07:01:19;;;;;;;6.78;2.97;;;21.60;85.10;;;;;;4218687;28;20048;-83
2022/08/13 07:03:28;;;;;;;4.25;2.50;;;21.70;84.40;;;;;;4250433;27;20039;-83
2022/08/13 07:05:33;;;;;;;7.20;2.55;;;21.80;83.90;;;;;;4215118;28;20104;-82
2022/08/13 07:07:43;;;;;;;7.20;2.70;;;21.90;83.70;;;;;;4231503;28;20126;-83
2022/08/13 07:09:48;;;;;;;6.60;2.35;;;21.90;83.40;;;;;;4231936;28;20048;-83
2022/08/13 07:11:48;;;;;;;4.10;2.22;;;22.10;82.90;;;;;;4215959;28;20058;-83
2022/08/13 07:13:56;;;;;;;4.68;2.30;;;22.20;82.50;;;;;;4250055;27;20403;-83
2022/08/13 07:15:57;;;;;;;5.50;1.98;;;22.40;82.40;;;;;;4250047;27;20340;-83
2022/08/13 07:17:58;;;;;;;10.10;2.00;;;22.50;82.30;;;;;;4231791;28;20048;-83
2022/08/13 07:20:00;;;;;;;12.32;2.33;;;22.70;81.70;;;;;;4254410;27;20042;-83
2022/08/13 07:22:01;;;;;;;3.78;1.90;;;22.80;81.10;;;;;;4248511;27;20124;-83
2022/08/13 07:24:03;;;;;;;5.88;2.60;;;22.80;80.50;;;;;;4267191;27;20039;-82
2022/08/13 07:26:05;;;;;;;3.22;1.75;;;22.90;80.20;;;;;;4248833;27;20577;-82
2022/08/13 07:28:08;;;;;;;3.05;1.55;;;23.10;79.90;;;;;;4248641;27;20487;-82
2022/08/13 07:30:14;;;;;;;5.35;2.35;;;23.20;79.60;;;;;;4267652;27;20046;-82
2022/08/13 07:32:15;;;;;;;3.28;1.83;;;23.40;79.40;;;;;;4266981;27;20073;-82
2022/08/13 07:34:15;;;;;;;3.42;1.90;;;23.60;79.50;;;;;;4214589;28;20040;-82
2022/08/13 07:36:16;;;;;;;3.22;1.60;;;23.70;78.70;;;;;;4248211;27;20038;-83
2022/08/13 07:38:17;;;;;;;2.08;1.38;;;23.80;78.10;;;;;;4263296;27;20511;-82
2022/08/13 07:40:19;;;;;;;4.25;1.88;;;24.00;77.20;;;;;;4249692;27;20039;-83
2022/08/13 07:42:21;;;;;;;4.88;1.73;;;24.10;76.80;;;;;;4249733;27;20043;-83
2022/08/13 07:44:23;;;;;;;2.70;1.30;;;24.20;75.90;;;;;;4249153;27;20415;-82
2022/08/13 07:46:24;;;;;;;5.25;1.30;;;24.30;75.90;;;;;;4249637;27;20079;-82
2022/08/13 07:48:29;;;;;;;5.43;1.40;;;24.40;75.20;;;;;;4248583;27;20043;-83
2022/08/13 07:50:31;;;;;;;4.60;1.38;;;24.50;74.50;;;;;;4249678;27;20057;-83
2022/08/13 07:52:32;;;;;;;6.60;1.30;;;24.70;74.20;;;;;;4249166;27;20091;-81
2022/08/13 07:54:34;;;;;;;2.95;1.40;;;24.80;73.60;;;;;;4263523;27;20511;-83
2022/08/13 07:56:36;;;;;;;3.55;1.75;;;25.10;73.20;;;;;;4230847;28;20097;-82
2022/08/13 07:58:37;;;;;;;1.65;1.08;;;25.20;72.40;;;;;;4247820;27;20134;-83
2022/08/13 08:00:38;;;;;;;8.15;1.20;;;25.40;71.90;;;;;;4266044;27;20043;-83
2022/08/13 08:02:40;;;;;;;5.47;1.30;;;25.60;71.90;;;;;;4266491;27;20050;-83
2022/08/13 08:04:43;;;;;;;2.83;1.50;;;25.80;70.20;;;;;;4265569;27;20046;-83
2022/08/13 08:06:46;;;;;;;4.57;1.08;;;25.80;69.30;;;;;;4235373;27;20503;-83
2022/08/13 08:08:49;;;;;;;4.38;1.30;;;26.00;68.90;;;;;;4230460;28;20052;-83
2022/08/13 08:10:52;;;;;;;10.00;1.45;;;26.20;69.10;;;;;;4213667;28;20575;-83
2022/08/13 08:12:59;;;;;;;3.80;1.08;;;26.40;67.30;;;;;;4248312;27;20043;-82
2022/08/13 08:15:00;;;;;;;5.60;1.17;;;26.40;66.90;;;;;;4230383;27;20051;-83
2022/08/13 08:17:03;;;;;;;2.03;0.90;;;26.60;66.70;;;;;;4248309;27;20032;-83
2022/08/13 08:19:05;;;;;;;3.00;1.42;;;26.70;65.40;;;;;;4247520;27;20059;-83
2022/08/13 08:21:08;;;;;;;8.70;1.30;;;26.90;65.60;;;;;;4248749;27;20043;-83
2022/08/13 08:23:11;;;;;;;2.53;1.27;;;27.10;65.70;;;;;;4248105;27;20483;-83
2022/08/13 08:25:17;;;;;;;4.13;1.05;;;27.40;65.20;;;;;;4247360;27;20043;-83
2022/08/13 08:27:19;;;;;;;1.95;1.30;;;27.70;65.80;;;;;;4247119;27;20046;-83
2022/08/13 08:29:20;;;;;;;1.30;0.90;;;27.90;65.10;;;;;;4248589;27;20066;-83
2022/08/13 08:31:23;;;;;;;4.93;1.10;;;28.20;64.90;;;;;;4249090;27;20510;-83
2022/08/13 08:33:26;;;;;;;4.57;1.10;;;28.30;63.40;;;;;;4247722;27;20046;-82
2022/08/13 08:35:28;;;;;;;2.22;0.90;;;28.40;62.70;;;;;;4248242;27;20483;-83
2022/08/13 08:44:32;;;;;;;3.85;0.85;;;28.70;59.30;;;;;;4236949;27;20055;-83
2022/08/13 08:46:34;;;;;;;2.97;1.15;;;28.80;57.60;;;;;;4266464;27;20050;-82
2022/08/13 08:48:36;;;;;;;6.40;1.48;;;28.60;57.20;;;;;;4265310;27;20479;-83
2022/08/13 08:50:38;;;;;;;2.67;1.02;;;28.70;57.20;;;;;;4247883;27;20102;-82
2022/08/13 08:55:01;;;;;;;2.53;0.80;;;28.90;57.40;;;;;;4266458;27;20047;-83
2022/08/13 08:57:04;;;;;;;2.83;1.20;;;29.30;57.20;;;;;;4266204;27;20043;-83
2022/08/13 08:59:06;;;;;;;11.73;2.03;;;29.50;56.60;;;;;;4265703;27;20099;-82
2022/08/13 09:01:11;;;;;;;3.88;1.13;;;29.70;56.10;;;;;;4249441;27;20078;-82
2022/08/13 09:03:17;;;;;;;2.42;1.00;;;29.70;55.20;;;;;;4248640;27;20121;-83
2022/08/13 09:05:25;;;;;;;1.40;0.98;;;29.60;54.50;;;;;;4248943;27;20054;-82
2022/08/13 09:07:36;;;;;;;1.52;0.90;;;29.60;54.40;;;;;;4248550;27;20051;-82
2022/08/13 09:09:38;;;;;;;4.25;1.08;;;29.80;54.50;;;;;;4231019;27;20485;-83
2022/08/13 09:11:40;;;;;;;5.20;1.00;;;30.00;55.00;;;;;;4265812;27;20056;-83
2022/08/13 09:13:49;;;;;;;4.65;0.73;;;30.40;54.20;;;;;;4265925;27;20043;-82
2022/08/13 09:15:51;;;;;;;1.48;0.90;;;30.50;54.10;;;;;;4265301;27;20474;-83
2022/08/13 09:17:53;;;;;;;2.40;1.10;;;30.90;53.10;;;;;;4265319;27;20038;-82
2022/08/13 09:19:55;;;;;;;2.38;0.90;;;31.10;52.10;;;;;;4265370;27;20070;-83
2022/08/13 09:21:58;;;;;;;4.45;0.93;;;31.10;50.70;;;;;;4230020;28;20457;-82
2022/08/13 09:24:01;;;;;;;3.90;1.70;;;31.00;50.70;;;;;;4246728;27;20128;-83
2022/08/13 09:26:05;;;;;;;2.60;0.80;;;31.30;51.90;;;;;;4254491;27;20407;-84
2022/08/13 09:28:08;;;;;;;1.63;0.98;;;31.50;51.60;;;;;;4248113;27;20055;-83
2022/08/13 09:30:10;;;;;;;4.05;0.95;;;31.70;50.50;;;;;;4247453;27;20080;-84
2022/08/13 09:32:15;;;;;;;0.95;0.82;;;31.70;50.00;;;;;;4248040;27;20498;-82
2022/08/13 09:34:20;;;;;;;3.80;0.85;;;31.80;49.70;;;;;;4256911;27;20042;-83
2022/08/13 09:36:24;;;;;;;2.15;0.90;;;31.90;49.30;;;;;;4246512;27;20414;-83
2022/08/13 09:38:27;;;;;;;5.85;0.95;;;32.10;48.50;;;;;;4265322;27;20530;-83
2022/08/13 09:40:32;;;;;;;6.18;0.82;;;32.30;48.50;;;;;;4265194;27;20043;-83
2022/08/13 09:42:44;;;;;;;3.42;0.90;;;32.60;48.60;;;;;;4265081;27;20088;-83
2022/08/13 09:44:45;;;;;;;1.92;0.90;;;32.80;46.90;;;;;;4245991;27;20051;-84
2022/08/13 09:46:48;;;;;;;4.78;0.70;;;32.80;47.50;;;;;;4231410;27;20392;-83
2022/08/13 09:48:51;;;;;;;3.45;0.80;;;32.90;47.60;;;;;;4247970;27;20039;-84
2022/08/13 09:50:53;;;;;;;5.18;1.10;;;33.00;47.30;;;;;;4248288;27;20075;-84
2022/08/13 09:52:56;;;;;;;2.92;0.90;;;33.20;47.60;;;;;;4229805;28;20439;-84
2022/08/13 09:54:58;;;;;;;2.38;1.02;;;33.40;47.40;;;;;;4261009;27;20039;-84
2022/08/13 09:56:59;;;;;;;6.10;1.15;;;33.60;46.90;;;;;;4246759;27;20069;-84
2022/08/13 09:59:01;;;;;;;2.30;0.88;;;33.40;45.10;;;;;;4246807;27;20043;-83
2022/08/13 10:01:03;;;;;;;2.80;1.20;;;33.20;44.10;;;;;;4246812;27;20422;-83
2022/08/13 10:03:07;;;;;;;5.85;1.15;;;33.00;44.30;;;;;;4246494;28;20127;-83
2022/08/13 10:05:08;;;;;;;2.25;0.80;;;32.90;45.30;;;;;;4264574;27;20483;-84
2022/08/13 10:07:12;;;;;;;2.83;0.73;;;33.00;44.70;;;;;;4265148;27;20050;-84
2022/08/13 10:09:14;;;;;;;4.80;0.75;;;33.10;43.90;;;;;;4265052;27;20372;-83
2022/08/13 10:11:22;;;;;;;1.50;0.90;;;33.00;44.60;;;;;;4246754;27;20078;-84
2022/08/13 10:13:28;;;;;;;4.63;0.90;;;33.10;44.00;;;;;;4265226;27;20108;-83
2022/08/13 10:15:31;;;;;;;2.40;0.82;;;33.20;44.10;;;;;;4229227;28;20054;-83
2022/08/13 10:17:55;;;;;;;1.42;0.75;;;33.30;43.60;;;;;;4265095;27;20039;-83
2022/08/13 10:19:56;;;;;;;1.25;0.90;;;33.40;42.20;;;;;;4264789;27;20043;-83
2022/08/13 10:21:59;;;;;;;1.45;0.80;;;33.50;43.20;;;;;;4265047;27;20376;-83
2022/08/13 10:24:01;;;;;;;1.10;0.65;;;33.70;42.80;;;;;;4249617;27;20050;-83
2022/08/13 10:26:03;;;;;;;2.47;0.80;;;33.60;42.80;;;;;;4248143;28;20610;-83
2022/08/13 10:28:16;;;;;;;2.40;0.90;;;33.80;42.50;;;;;;4229493;28;20181;-83
2022/08/13 10:30:19;;;;;;;3.03;0.95;;;33.60;40.40;;;;;;4248169;27;20442;-83
2022/08/13 10:32:22;;;;;;;2.20;0.95;;;33.10;39.90;;;;;;4229474;28;20042;-83
2022/08/13 10:34:27;;;;;;;3.75;0.80;;;32.80;40.30;;;;;;4247349;28;20043;-83
2022/08/13 10:36:37;;;;;;;2.70;1.00;;;32.60;41.40;;;;;;4247309;28;20046;-84
2022/08/13 10:38:39;;;;;;;1.17;0.80;;;32.50;41.50;;;;;;4228882;28;20423;-83
2022/08/13 10:40:40;;;;;;;2.42;1.10;;;32.60;41.60;;;;;;4247140;28;20475;-84
2022/08/13 10:42:44;;;;;;;1.33;1.00;;;32.70;41.30;;;;;;4211409;28;20103;-83
2022/08/13 10:44:45;;;;;;;4.47;0.90;;;32.60;41.10;;;;;;4229130;28;20062;-84
2022/08/13 10:46:46;;;;;;;1.42;0.98;;;32.80;41.10;;;;;;4212352;28;20084;-83
2022/08/13 10:48:51;;;;;;;5.72;0.60;;;33.00;41.40;;;;;;4229435;28;20570;-83
2022/08/13 10:50:55;;;;;;;3.55;0.95;;;33.30;41.60;;;;;;4229517;28;20180;-83
2022/08/13 10:52:58;;;;;;;3.53;1.25;;;33.80;40.90;;;;;;4247752;28;20050;-83
2022/08/13 10:55:00;;;;;;;8.60;0.90;;;34.10;40.30;;;;;;4229007;28;20584;-84
2022/08/13 10:57:04;;;;;;;2.17;0.90;;;34.20;40.40;;;;;;4229251;28;20044;-83
2022/08/13 10:59:06;;;;;;;3.08;0.75;;;34.40;41.20;;;;;;4229660;28;20090;-84
2022/08/13 11:01:08;;;;;;;3.80;0.90;;;34.70;40.30;;;;;;4248750;28;20039;-83
2022/08/13 11:03:10;;;;;;;1.52;0.82;;;35.00;41.00;;;;;;4249045;28;20039;-84